sensor_id;sensor_type;location;lat;lon;timestamp;P1;durP1;ratioP1;P2;durP2;ratioP2
65130;SDS011;51709;54.912;8.316;2022-08-01T00:01:02;12.82;;;3.42;;
65130;SDS011;51709;54.912;8.316;2022-08-01T00:06:22;11.18;;;3.15;;
65130;SDS011;51709;54.912;8.316;2022-08-01T00:11:43;10.98;;;2.88;;
65130;SDS011;51709;54.912;8.316;2022-08-01T00:17:04;6.32;;;2.80;;
65130;SDS011;51709;54.912;8.316;2022-08-01T00:22:26;7.30;;;2.83;;
65130;SDS011;51709;54.912;8.316;2022-08-01T00:27:47;6.97;;;2.67;;
65130;SDS011;51709;54.912;8.316;2022-08-01T00:33:09;11.43;;;3.85;;
65130;SDS011;51709;54.912;8.316;2022-08-01T00:38:29;10.15;;;3.17;;
65130;SDS011;51709;54.912;8.316;2022-08-01T00:43:50;14.85;;;3.72;;
65130;SDS011;51709;54.912;8.316;2022-08-01T00:49:11;10.23;;;3.10;;
65130;SDS011;51709;54.912;8.316;2022-08-01T00:54:31;14.95;;;3.35;;
65130;SDS011;51709;54.912;8.316;2022-08-01T00:59:52;19.35;;;3.70;;
65130;SDS011;51709;54.912;8.316;2022-08-01T01:05:14;14.60;;;3.60;;
65130;SDS011;51709;54.912;8.316;2022-08-01T01:16:05;13.80;;;2.67;;
65130;SDS011;51709;54.912;8.316;2022-08-01T01:21:35;6.30;;;2.35;;
65130;SDS011;51709;54.912;8.316;2022-08-01T01:27:25;9.07;;;3.08;;
65130;SDS011;51709;54.912;8.316;2022-08-01T01:32:58;19.60;;;3.90;;
65130;SDS011;51709;54.912;8.316;2022-08-01T01:38:21;19.27;;;3.47;;
65130;SDS011;51709;54.912;8.316;2022-08-01T01:49:06;17.75;;;4.35;;
65130;SDS011;51709;54.912;8.316;2022-08-01T01:54:32;25.83;;;4.22;;
65130;SDS011;51709;54.912;8.316;2022-08-01T01:59:56;29.80;;;4.32;;
65130;SDS011;51709;54.912;8.316;2022-08-01T02:05:18;23.65;;;4.38;;
65130;SDS011;51709;54.912;8.316;2022-08-01T02:10:39;17.08;;;4.00;;
65130;SDS011;51709;54.912;8.316;2022-08-01T02:16:27;24.20;;;4.25;;
65130;SDS011;51709;54.912;8.316;2022-08-01T02:22:01;23.35;;;4.82;;
65130;SDS011;51709;54.912;8.316;2022-08-01T02:27:43;25.15;;;4.80;;
65130;SDS011;51709;54.912;8.316;2022-08-01T02:38:36;14.30;;;3.60;;
65130;SDS011;51709;54.912;8.316;2022-08-01T02:44:02;15.20;;;4.32;;
65130;SDS011;51709;54.912;8.316;2022-08-01T02:49:25;18.42;;;3.72;;
65130;SDS011;51709;54.912;8.316;2022-08-01T02:54:49;16.10;;;3.75;;
65130;SDS011;51709;54.912;8.316;2022-08-01T03:00:14;21.88;;;3.60;;
65130;SDS011;51709;54.912;8.316;2022-08-01T03:05:36;15.30;;;3.75;;
65130;SDS011;51709;54.912;8.316;2022-08-01T03:11:00;7.28;;;2.47;;
65130;SDS011;51709;54.912;8.316;2022-08-01T03:16:22;12.30;;;3.25;;
65130;SDS011;51709;54.912;8.316;2022-08-01T03:21:45;15.43;;;4.38;;
65130;SDS011;51709;54.912;8.316;2022-08-01T03:27:07;16.35;;;3.65;;
65130;SDS011;51709;54.912;8.316;2022-08-01T03:32:31;18.03;;;3.17;;
65130;SDS011;51709;54.912;8.316;2022-08-01T03:37:52;21.85;;;3.38;;
65130;SDS011;51709;54.912;8.316;2022-08-01T03:43:40;14.75;;;3.72;;
65130;SDS011;51709;54.912;8.316;2022-08-01T03:49:07;17.25;;;3.03;;
65130;SDS011;51709;54.912;8.316;2022-08-01T03:54:35;21.42;;;3.75;;
65130;SDS011;51709;54.912;8.316;2022-08-01T03:59:59;18.90;;;2.97;;
65130;SDS011;51709;54.912;8.316;2022-08-01T04:05:20;14.48;;;3.97;;
65130;SDS011;51709;54.912;8.316;2022-08-01T04:10:41;17.70;;;3.25;;
65130;SDS011;51709;54.912;8.316;2022-08-01T04:16:02;14.18;;;3.05;;
65130;SDS011;51709;54.912;8.316;2022-08-01T04:21:24;15.57;;;3.30;;
65130;SDS011;51709;54.912;8.316;2022-08-01T04:26:50;17.40;;;3.33;;
65130;SDS011;51709;54.912;8.316;2022-08-01T04:32:12;27.50;;;3.92;;
65130;SDS011;51709;54.912;8.316;2022-08-01T04:37:35;22.40;;;3.38;;
65130;SDS011;51709;54.912;8.316;2022-08-01T04:42:57;20.98;;;3.65;;
65130;SDS011;51709;54.912;8.316;2022-08-01T04:48:18;18.15;;;4.05;;
65130;SDS011;51709;54.912;8.316;2022-08-01T04:53:43;10.18;;;3.40;;
65130;SDS011;51709;54.912;8.316;2022-08-01T04:59:06;10.02;;;2.72;;
65130;SDS011;51709;54.912;8.316;2022-08-01T05:04:45;7.38;;;2.63;;
65130;SDS011;51709;54.912;8.316;2022-08-01T05:10:07;7.80;;;3.00;;
65130;SDS011;51709;54.912;8.316;2022-08-01T05:15:28;16.05;;;2.35;;
65130;SDS011;51709;54.912;8.316;2022-08-01T05:20:48;16.80;;;2.80;;
65130;SDS011;51709;54.912;8.316;2022-08-01T05:26:12;16.05;;;2.88;;
65130;SDS011;51709;54.912;8.316;2022-08-01T05:31:34;14.75;;;2.47;;
65130;SDS011;51709;54.912;8.316;2022-08-01T05:36:55;13.65;;;2.67;;
65130;SDS011;51709;54.912;8.316;2022-08-01T05:42:17;15.38;;;3.03;;
65130;SDS011;51709;54.912;8.316;2022-08-01T05:47:38;13.40;;;2.55;;
65130;SDS011;51709;54.912;8.316;2022-08-01T05:58:23;13.63;;;2.65;;
65130;SDS011;51709;54.912;8.316;2022-08-01T06:03:43;13.45;;;2.30;;
65130;SDS011;51709;54.912;8.316;2022-08-01T06:09:04;11.95;;;2.95;;
65130;SDS011;51709;54.912;8.316;2022-08-01T06:14:25;16.02;;;2.55;;
65130;SDS011;51709;54.912;8.316;2022-08-01T06:19:45;17.20;;;3.10;;
65130;SDS011;51709;54.912;8.316;2022-08-01T06:25:06;16.48;;;2.53;;
65130;SDS011;51709;54.912;8.316;2022-08-01T06:30:27;14.23;;;2.38;;
65130;SDS011;51709;54.912;8.316;2022-08-01T06:35:48;7.50;;;2.17;;
65130;SDS011;51709;54.912;8.316;2022-08-01T06:41:08;11.82;;;2.55;;
65130;SDS011;51709;54.912;8.316;2022-08-01T06:46:29;8.65;;;2.30;;
65130;SDS011;51709;54.912;8.316;2022-08-01T06:51:54;8.80;;;2.40;;
65130;SDS011;51709;54.912;8.316;2022-08-01T06:57:14;10.73;;;2.38;;
65130;SDS011;51709;54.912;8.316;2022-08-01T07:02:35;6.07;;;1.60;;
65130;SDS011;51709;54.912;8.316;2022-08-01T07:07:57;12.98;;;2.25;;
65130;SDS011;51709;54.912;8.316;2022-08-01T07:13:18;8.57;;;2.28;;
65130;SDS011;51709;54.912;8.316;2022-08-01T07:18:56;6.78;;;2.13;;
65130;SDS011;51709;54.912;8.316;2022-08-01T07:24:16;8.38;;;2.35;;
65130;SDS011;51709;54.912;8.316;2022-08-01T07:29:40;12.38;;;2.00;;
65130;SDS011;51709;54.912;8.316;2022-08-01T07:35:01;8.68;;;2.22;;
65130;SDS011;51709;54.912;8.316;2022-08-01T07:40:23;11.98;;;2.67;;
65130;SDS011;51709;54.912;8.316;2022-08-01T07:45:43;7.75;;;1.95;;
65130;SDS011;51709;54.912;8.316;2022-08-01T07:51:06;7.45;;;1.67;;
65130;SDS011;51709;54.912;8.316;2022-08-01T07:56:26;4.65;;;1.95;;
65130;SDS011;51709;54.912;8.316;2022-08-01T08:01:47;8.30;;;2.05;;
65130;SDS011;51709;54.912;8.316;2022-08-01T08:07:08;20.20;;;3.88;;
65130;SDS011;51709;54.912;8.316;2022-08-01T08:12:29;11.73;;;2.28;;
65130;SDS011;51709;54.912;8.316;2022-08-01T08:17:50;8.75;;;2.10;;
65130;SDS011;51709;54.912;8.316;2022-08-01T08:23:14;5.15;;;1.88;;
65130;SDS011;51709;54.912;8.316;2022-08-01T08:29:03;8.65;;;2.10;;
65130;SDS011;51709;54.912;8.316;2022-08-01T08:34:24;13.60;;;2.83;;
65130;SDS011;51709;54.912;8.316;2022-08-01T08:39:46;10.23;;;2.72;;
65130;SDS011;51709;54.912;8.316;2022-08-01T08:45:07;6.10;;;2.20;;
65130;SDS011;51709;54.912;8.316;2022-08-01T08:50:31;5.32;;;1.90;;
65130;SDS011;51709;54.912;8.316;2022-08-01T08:55:52;3.45;;;2.03;;
65130;SDS011;51709;54.912;8.316;2022-08-01T09:01:15;14.65;;;3.05;;
65130;SDS011;51709;54.912;8.316;2022-08-01T09:06:41;6.90;;;2.22;;
65130;SDS011;51709;54.912;8.316;2022-08-01T09:12:02;4.78;;;2.10;;
65130;SDS011;51709;54.912;8.316;2022-08-01T09:17:23;5.05;;;1.98;;
65130;SDS011;51709;54.912;8.316;2022-08-01T09:22:45;13.93;;;2.70;;
65130;SDS011;51709;54.912;8.316;2022-08-01T09:28:07;14.00;;;2.97;;
65130;SDS011;51709;54.912;8.316;2022-08-01T09:33:47;10.77;;;2.80;;
65130;SDS011;51709;54.912;8.316;2022-08-01T09:39:15;6.95;;;2.42;;
65130;SDS011;51709;54.912;8.316;2022-08-01T09:44:40;6.75;;;2.15;;
65130;SDS011;51709;54.912;8.316;2022-08-01T09:50:05;12.48;;;2.80;;
65130;SDS011;51709;54.912;8.316;2022-08-01T09:55:31;11.70;;;2.08;;
65130;SDS011;51709;54.912;8.316;2022-08-01T10:00:58;10.15;;;2.60;;
65130;SDS011;51709;54.912;8.316;2022-08-01T10:06:24;42.75;;;19.63;;
65130;SDS011;51709;54.912;8.316;2022-08-01T10:11:45;30.13;;;14.52;;
65130;SDS011;51709;54.912;8.316;2022-08-01T10:17:06;12.23;;;4.18;;
65130;SDS011;51709;54.912;8.316;2022-08-01T10:22:38;12.25;;;3.13;;
65130;SDS011;51709;54.912;8.316;2022-08-01T10:28:00;9.25;;;3.05;;
65130;SDS011;51709;54.912;8.316;2022-08-01T10:33:25;8.65;;;2.53;;
65130;SDS011;51709;54.912;8.316;2022-08-01T10:39:06;7.68;;;2.33;;
65130;SDS011;51709;54.912;8.316;2022-08-01T10:44:28;7.03;;;2.10;;
65130;SDS011;51709;54.912;8.316;2022-08-01T10:55:14;8.02;;;2.33;;
65130;SDS011;51709;54.912;8.316;2022-08-01T11:00:34;6.93;;;2.45;;
65130;SDS011;51709;54.912;8.316;2022-08-01T11:05:55;9.25;;;2.25;;
65130;SDS011;51709;54.912;8.316;2022-08-01T11:11:17;2.72;;;1.60;;
65130;SDS011;51709;54.912;8.316;2022-08-01T11:16:41;7.82;;;2.22;;
65130;SDS011;51709;54.912;8.316;2022-08-01T11:22:02;6.45;;;2.20;;
65130;SDS011;51709;54.912;8.316;2022-08-01T11:32:52;7.20;;;2.05;;
65130;SDS011;51709;54.912;8.316;2022-08-01T11:38:31;5.78;;;2.15;;
65130;SDS011;51709;54.912;8.316;2022-08-01T11:49:45;5.55;;;1.95;;
65130;SDS011;51709;54.912;8.316;2022-08-01T11:55:10;9.13;;;2.40;;
65130;SDS011;51709;54.912;8.316;2022-08-01T12:00:35;12.65;;;2.15;;
65130;SDS011;51709;54.912;8.316;2022-08-01T12:06:03;8.25;;;2.13;;
65130;SDS011;51709;54.912;8.316;2022-08-01T12:11:24;4.88;;;1.95;;
65130;SDS011;51709;54.912;8.316;2022-08-01T12:16:56;10.73;;;2.08;;
65130;SDS011;51709;54.912;8.316;2022-08-01T12:22:16;9.35;;;2.40;;
65130;SDS011;51709;54.912;8.316;2022-08-01T12:27:38;8.55;;;2.20;;
65130;SDS011;51709;54.912;8.316;2022-08-01T12:33:03;11.68;;;2.17;;
65130;SDS011;51709;54.912;8.316;2022-08-01T12:38:25;3.43;;;1.70;;
65130;SDS011;51709;54.912;8.316;2022-08-01T12:43:47;5.55;;;1.95;;
65130;SDS011;51709;54.912;8.316;2022-08-01T12:49:08;8.45;;;2.00;;
65130;SDS011;51709;54.912;8.316;2022-08-01T12:54:30;7.20;;;2.08;;
65130;SDS011;51709;54.912;8.316;2022-08-01T13:00:04;6.35;;;2.33;;
65130;SDS011;51709;54.912;8.316;2022-08-01T13:05:26;10.65;;;2.53;;
65130;SDS011;51709;54.912;8.316;2022-08-01T13:10:48;8.95;;;2.90;;
65130;SDS011;51709;54.912;8.316;2022-08-01T13:16:10;12.45;;;2.33;;
65130;SDS011;51709;54.912;8.316;2022-08-01T13:21:55;8.27;;;2.00;;
65130;SDS011;51709;54.912;8.316;2022-08-01T13:27:20;11.32;;;2.47;;
65130;SDS011;51709;54.912;8.316;2022-08-01T13:32:58;9.50;;;1.92;;
65130;SDS011;51709;54.912;8.316;2022-08-01T13:38:19;7.93;;;2.28;;
65130;SDS011;51709;54.912;8.316;2022-08-01T13:44:00;9.63;;;1.88;;
65130;SDS011;51709;54.912;8.316;2022-08-01T13:49:21;5.63;;;2.00;;
65130;SDS011;51709;54.912;8.316;2022-08-01T13:54:42;4.32;;;1.77;;
65130;SDS011;51709;54.912;8.316;2022-08-01T14:00:04;7.00;;;2.30;;
65130;SDS011;51709;54.912;8.316;2022-08-01T14:05:31;7.80;;;1.90;;
65130;SDS011;51709;54.912;8.316;2022-08-01T14:10:51;3.92;;;1.80;;
65130;SDS011;51709;54.912;8.316;2022-08-01T14:16:13;14.55;;;2.63;;
65130;SDS011;51709;54.912;8.316;2022-08-01T14:21:34;9.68;;;2.25;;
65130;SDS011;51709;54.912;8.316;2022-08-01T14:26:55;9.05;;;2.38;;
65130;SDS011;51709;54.912;8.316;2022-08-01T14:32:15;7.32;;;1.77;;
65130;SDS011;51709;54.912;8.316;2022-08-01T14:37:36;5.28;;;2.05;;
65130;SDS011;51709;54.912;8.316;2022-08-01T14:42:58;5.70;;;2.08;;
65130;SDS011;51709;54.912;8.316;2022-08-01T14:48:20;9.68;;;2.05;;
65130;SDS011;51709;54.912;8.316;2022-08-01T14:53:41;3.42;;;1.70;;
65130;SDS011;51709;54.912;8.316;2022-08-01T14:59:12;13.63;;;1.92;;
65130;SDS011;51709;54.912;8.316;2022-08-01T15:04:41;11.75;;;1.98;;
65130;SDS011;51709;54.912;8.316;2022-08-01T15:10:02;4.25;;;2.33;;
65130;SDS011;51709;54.912;8.316;2022-08-01T15:15:23;5.18;;;1.92;;
65130;SDS011;51709;54.912;8.316;2022-08-01T15:20:45;5.38;;;2.20;;
65130;SDS011;51709;54.912;8.316;2022-08-01T15:26:05;8.32;;;2.13;;
65130;SDS011;51709;54.912;8.316;2022-08-01T15:31:33;13.40;;;2.65;;
65130;SDS011;51709;54.912;8.316;2022-08-01T15:36:58;5.35;;;1.90;;
65130;SDS011;51709;54.912;8.316;2022-08-01T15:42:19;6.55;;;1.98;;
65130;SDS011;51709;54.912;8.316;2022-08-01T15:47:46;7.18;;;2.47;;
65130;SDS011;51709;54.912;8.316;2022-08-01T15:53:07;9.10;;;2.78;;
65130;SDS011;51709;54.912;8.316;2022-08-01T15:58:27;11.43;;;3.35;;
65130;SDS011;51709;54.912;8.316;2022-08-01T16:03:48;7.43;;;2.60;;
65130;SDS011;51709;54.912;8.316;2022-08-01T16:09:09;7.00;;;3.17;;
65130;SDS011;51709;54.912;8.316;2022-08-01T16:14:39;7.20;;;2.70;;
65130;SDS011;51709;54.912;8.316;2022-08-01T16:20:00;4.18;;;2.60;;
65130;SDS011;51709;54.912;8.316;2022-08-01T16:25:21;8.93;;;2.90;;
65130;SDS011;51709;54.912;8.316;2022-08-01T16:30:41;5.32;;;2.50;;
65130;SDS011;51709;54.912;8.316;2022-08-01T16:36:22;5.78;;;2.78;;
65130;SDS011;51709;54.912;8.316;2022-08-01T16:41:44;3.27;;;2.80;;
65130;SDS011;51709;54.912;8.316;2022-08-01T16:47:05;9.30;;;3.03;;
65130;SDS011;51709;54.912;8.316;2022-08-01T16:52:28;7.07;;;2.67;;
65130;SDS011;51709;54.912;8.316;2022-08-01T16:57:49;5.80;;;2.40;;
65130;SDS011;51709;54.912;8.316;2022-08-01T17:03:10;4.25;;;2.45;;
65130;SDS011;51709;54.912;8.316;2022-08-01T17:08:38;6.70;;;1.98;;
65130;SDS011;51709;54.912;8.316;2022-08-01T17:14:06;7.72;;;2.13;;
65130;SDS011;51709;54.912;8.316;2022-08-01T17:19:26;27.05;;;11.45;;
65130;SDS011;51709;54.912;8.316;2022-08-01T17:24:52;10.32;;;2.20;;
65130;SDS011;51709;54.912;8.316;2022-08-01T17:30:13;4.65;;;1.80;;
65130;SDS011;51709;54.912;8.316;2022-08-01T17:35:34;7.47;;;1.77;;
65130;SDS011;51709;54.912;8.316;2022-08-01T17:40:55;8.68;;;1.58;;
65130;SDS011;51709;54.912;8.316;2022-08-01T17:46:16;5.80;;;1.55;;
65130;SDS011;51709;54.912;8.316;2022-08-01T17:51:36;5.53;;;1.55;;
65130;SDS011;51709;54.912;8.316;2022-08-01T17:56:57;7.90;;;1.67;;
65130;SDS011;51709;54.912;8.316;2022-08-01T18:02:18;6.93;;;1.65;;
65130;SDS011;51709;54.912;8.316;2022-08-01T18:07:39;11.85;;;1.85;;
65130;SDS011;51709;54.912;8.316;2022-08-01T18:13:19;5.32;;;1.65;;
65130;SDS011;51709;54.912;8.316;2022-08-01T18:18:40;13.35;;;1.70;;
65130;SDS011;51709;54.912;8.316;2022-08-01T18:24:03;11.82;;;2.28;;
65130;SDS011;51709;54.912;8.316;2022-08-01T18:29:25;7.82;;;1.38;;
65130;SDS011;51709;54.912;8.316;2022-08-01T18:35:06;7.32;;;1.85;;
65130;SDS011;51709;54.912;8.316;2022-08-01T18:40:33;11.13;;;2.08;;
65130;SDS011;51709;54.912;8.316;2022-08-01T18:45:54;7.30;;;1.98;;
65130;SDS011;51709;54.912;8.316;2022-08-01T18:51:17;8.90;;;2.13;;
65130;SDS011;51709;54.912;8.316;2022-08-01T18:56:38;10.88;;;2.65;;
65130;SDS011;51709;54.912;8.316;2022-08-01T19:01:59;3.10;;;1.70;;
65130;SDS011;51709;54.912;8.316;2022-08-01T19:07:20;5.40;;;1.60;;
65130;SDS011;51709;54.912;8.316;2022-08-01T19:13:01;5.20;;;1.23;;
65130;SDS011;51709;54.912;8.316;2022-08-01T19:18:22;7.97;;;1.77;;
65130;SDS011;51709;54.912;8.316;2022-08-01T19:23:44;14.63;;;2.13;;
65130;SDS011;51709;54.912;8.316;2022-08-01T19:29:24;9.50;;;2.15;;
65130;SDS011;51709;54.912;8.316;2022-08-01T19:35:08;7.47;;;2.13;;
65130;SDS011;51709;54.912;8.316;2022-08-01T19:40:33;8.70;;;1.75;;
65130;SDS011;51709;54.912;8.316;2022-08-01T19:45:53;15.95;;;1.70;;
65130;SDS011;51709;54.912;8.316;2022-08-01T19:51:14;15.63;;;2.25;;
65130;SDS011;51709;54.912;8.316;2022-08-01T19:56:37;11.38;;;1.63;;
65130;SDS011;51709;54.912;8.316;2022-08-01T20:01:59;8.35;;;1.73;;
65130;SDS011;51709;54.912;8.316;2022-08-01T20:07:20;10.55;;;1.52;;
65130;SDS011;51709;54.912;8.316;2022-08-01T20:12:41;6.97;;;1.67;;
65130;SDS011;51709;54.912;8.316;2022-08-01T20:18:03;4.70;;;1.55;;
65130;SDS011;51709;54.912;8.316;2022-08-01T20:23:24;3.72;;;1.67;;
65130;SDS011;51709;54.912;8.316;2022-08-01T20:28:46;5.97;;;1.90;;
65130;SDS011;51709;54.912;8.316;2022-08-01T20:34:08;5.05;;;1.88;;
65130;SDS011;51709;54.912;8.316;2022-08-01T20:39:35;6.97;;;1.45;;
65130;SDS011;51709;54.912;8.316;2022-08-01T20:45:02;1.15;;;1.13;;
65130;SDS011;51709;54.912;8.316;2022-08-01T20:50:24;6.15;;;2.03;;
65130;SDS011;51709;54.912;8.316;2022-08-01T21:07:46;6.25;;;1.77;;
65130;SDS011;51709;54.912;8.316;2022-08-01T21:13:13;4.68;;;1.70;;
65130;SDS011;51709;54.912;8.316;2022-08-01T21:18:47;3.13;;;1.25;;
65130;SDS011;51709;54.912;8.316;2022-08-01T21:24:34;7.35;;;1.55;;
65130;SDS011;51709;54.912;8.316;2022-08-01T21:30:18;5.38;;;1.52;;
65130;SDS011;51709;54.912;8.316;2022-08-01T21:35:39;4.30;;;1.70;;
65130;SDS011;51709;54.912;8.316;2022-08-01T21:41:00;6.78;;;1.58;;
65130;SDS011;51709;54.912;8.316;2022-08-01T21:46:23;12.60;;;1.90;;
65130;SDS011;51709;54.912;8.316;2022-08-01T21:51:50;2.00;;;1.48;;
65130;SDS011;51709;54.912;8.316;2022-08-01T21:57:21;8.38;;;1.55;;
65130;SDS011;51709;54.912;8.316;2022-08-01T22:02:46;17.00;;;1.67;;
65130;SDS011;51709;54.912;8.316;2022-08-01T22:08:13;6.60;;;1.95;;
65130;SDS011;51709;54.912;8.316;2022-08-01T22:13:36;11.50;;;1.77;;
65130;SDS011;51709;54.912;8.316;2022-08-01T22:18:57;9.85;;;1.83;;
65130;SDS011;51709;54.912;8.316;2022-08-01T22:24:25;6.82;;;2.00;;
65130;SDS011;51709;54.912;8.316;2022-08-01T22:35:57;6.82;;;1.52;;
65130;SDS011;51709;54.912;8.316;2022-08-01T22:41:20;4.90;;;2.03;;
65130;SDS011;51709;54.912;8.316;2022-08-01T22:46:49;3.53;;;1.52;;
65130;SDS011;51709;54.912;8.316;2022-08-01T22:52:18;8.50;;;1.85;;
65130;SDS011;51709;54.912;8.316;2022-08-01T22:57:47;5.75;;;1.45;;
65130;SDS011;51709;54.912;8.316;2022-08-01T23:03:22;6.85;;;1.77;;
65130;SDS011;51709;54.912;8.316;2022-08-01T23:08:48;6.88;;;1.83;;
65130;SDS011;51709;54.912;8.316;2022-08-01T23:14:09;4.65;;;1.30;;
65130;SDS011;51709;54.912;8.316;2022-08-01T23:19:31;9.13;;;1.90;;
65130;SDS011;51709;54.912;8.316;2022-08-01T23:24:52;5.93;;;1.75;;
65130;SDS011;51709;54.912;8.316;2022-08-01T23:30:27;6.88;;;2.70;;
65130;SDS011;51709;54.912;8.316;2022-08-01T23:35:52;9.60;;;1.88;;
65130;SDS011;51709;54.912;8.316;2022-08-01T23:41:13;7.63;;;1.75;;
65130;SDS011;51709;54.912;8.316;2022-08-01T23:46:34;6.80;;;2.28;;
65130;SDS011;51709;54.912;8.316;2022-08-01T23:52:05;14.95;;;4.05;;
65130;SDS011;51709;54.912;8.316;2022-08-01T23:57:28;9.13;;;2.42;;
